sensor_id;sensor_type;location;lat;lon;timestamp;temperature;humidity
6260;DHT22;3163;51.516;4.000;2023-02-15T00:01:10;8.50;99.90
6260;DHT22;3163;51.516;4.000;2023-02-15T00:03:36;8.50;99.90
6260;DHT22;3163;51.516;4.000;2023-02-15T00:06:02;8.50;99.90
6260;DHT22;3163;51.516;4.000;2023-02-15T00:08:28;8.40;99.90
6260;DHT22;3163;51.516;4.000;2023-02-15T00:11:09;8.40;99.90
6260;DHT22;3163;51.516;4.000;2023-02-15T00:13:35;8.20;99.90
6260;DHT22;3163;51.516;4.000;2023-02-15T00:16:10;8.20;99.90
6260;DHT22;3163;51.516;4.000;2023-02-15T00:18:36;8.30;99.90
6260;DHT22;3163;51.516;4.000;2023-02-15T00:21:07;8.30;99.90
6260;DHT22;3163;51.516;4.000;2023-02-15T00:23:33;8.30;99.90
6260;DHT22;3163;51.516;4.000;2023-02-15T00:26:12;8.30;99.90
6260;DHT22;3163;51.516;4.000;2023-02-15T00:28:38;8.30;99.90
6260;DHT22;3163;51.516;4.000;2023-02-15T00:31:09;8.30;99.90
6260;DHT22;3163;51.516;4.000;2023-02-15T00:33:37;8.30;99.90
6260;DHT22;3163;51.516;4.000;2023-02-15T00:36:04;8.30;99.90
6260;DHT22;3163;51.516;4.000;2023-02-15T00:38:31;8.30;99.90
6260;DHT22;3163;51.516;4.000;2023-02-15T00:41:00;8.40;99.90
6260;DHT22;3163;51.516;4.000;2023-02-15T00:43:26;8.30;99.90
6260;DHT22;3163;51.516;4.000;2023-02-15T00:45:52;8.30;99.90
6260;DHT22;3163;51.516;4.000;2023-02-15T00:48:19;8.30;99.90
6260;DHT22;3163;51.516;4.000;2023-02-15T00:50:46;8.20;99.90
6260;DHT22;3163;51.516;4.000;2023-02-15T00:53:12;8.10;99.90
6260;DHT22;3163;51.516;4.000;2023-02-15T00:55:37;7.90;99.90
6260;DHT22;3163;51.516;4.000;2023-02-15T00:58:08;8.00;99.90
6260;DHT22;3163;51.516;4.000;2023-02-15T01:00:34;7.90;99.90
6260;DHT22;3163;51.516;4.000;2023-02-15T01:03:00;7.90;99.90
6260;DHT22;3163;51.516;4.000;2023-02-15T01:05:25;8.00;99.90
6260;DHT22;3163;51.516;4.000;2023-02-15T01:07:51;8.00;99.90
6260;DHT22;3163;51.516;4.000;2023-02-15T01:10:17;7.90;99.90
6260;DHT22;3163;51.516;4.000;2023-02-15T01:12:42;7.90;99.90
6260;DHT22;3163;51.516;4.000;2023-02-15T01:15:08;7.90;99.90
6260;DHT22;3163;51.516;4.000;2023-02-15T01:17:34;8.00;99.90
6260;DHT22;3163;51.516;4.000;2023-02-15T01:20:00;7.90;99.90
6260;DHT22;3163;51.516;4.000;2023-02-15T01:22:25;7.90;99.90
6260;DHT22;3163;51.516;4.000;2023-02-15T01:24:51;7.90;99.90
6260;DHT22;3163;51.516;4.000;2023-02-15T01:27:17;7.90;99.90
6260;DHT22;3163;51.516;4.000;2023-02-15T01:29:43;7.90;99.90
6260;DHT22;3163;51.516;4.000;2023-02-15T01:32:08;8.00;99.90
6260;DHT22;3163;51.516;4.000;2023-02-15T01:34:34;7.90;99.90
6260;DHT22;3163;51.516;4.000;2023-02-15T01:37:00;7.90;99.90
6260;DHT22;3163;51.516;4.000;2023-02-15T01:39:25;7.90;99.90
6260;DHT22;3163;51.516;4.000;2023-02-15T01:41:51;7.90;99.90
6260;DHT22;3163;51.516;4.000;2023-02-15T01:44:46;7.80;99.90
6260;DHT22;3163;51.516;4.000;2023-02-15T01:47:19;7.80;99.90
6260;DHT22;3163;51.516;4.000;2023-02-15T01:49:46;7.70;99.90
6260;DHT22;3163;51.516;4.000;2023-02-15T01:52:15;7.70;99.90
6260;DHT22;3163;51.516;4.000;2023-02-15T01:54:44;7.60;99.90
6260;DHT22;3163;51.516;4.000;2023-02-15T01:57:13;7.50;99.90
6260;DHT22;3163;51.516;4.000;2023-02-15T01:59:43;7.60;99.90
6260;DHT22;3163;51.516;4.000;2023-02-15T02:02:13;7.60;99.90
6260;DHT22;3163;51.516;4.000;2023-02-15T02:05:03;7.70;99.90
6260;DHT22;3163;51.516;4.000;2023-02-15T02:07:36;7.90;99.90
6260;DHT22;3163;51.516;4.000;2023-02-15T02:10:03;8.10;99.90
6260;DHT22;3163;51.516;4.000;2023-02-15T02:12:28;8.20;99.90
6260;DHT22;3163;51.516;4.000;2023-02-15T02:14:55;8.20;99.90
6260;DHT22;3163;51.516;4.000;2023-02-15T02:20:11;8.20;99.90
6260;DHT22;3163;51.516;4.000;2023-02-15T02:34:19;8.20;99.90
6260;DHT22;3163;51.516;4.000;2023-02-15T02:42:35;8.20;99.90
6260;DHT22;3163;51.516;4.000;2023-02-15T02:45:06;8.00;99.90
6260;DHT22;3163;51.516;4.000;2023-02-15T02:47:40;8.10;99.90
6260;DHT22;3163;51.516;4.000;2023-02-15T02:50:13;8.10;99.90
6260;DHT22;3163;51.516;4.000;2023-02-15T02:52:50;8.10;99.90
6260;DHT22;3163;51.516;4.000;2023-02-15T02:55:27;8.10;99.90
6260;DHT22;3163;51.516;4.000;2023-02-15T03:00:27;8.10;99.90
6260;DHT22;3163;51.516;4.000;2023-02-15T03:03:03;8.00;99.90
6260;DHT22;3163;51.516;4.000;2023-02-15T03:05:34;8.00;99.90
6260;DHT22;3163;51.516;4.000;2023-02-15T03:08:02;8.00;99.90
6260;DHT22;3163;51.516;4.000;2023-02-15T03:10:32;8.10;99.90
6260;DHT22;3163;51.516;4.000;2023-02-15T03:12:59;8.20;99.90
6260;DHT22;3163;51.516;4.000;2023-02-15T03:15:31;8.10;99.90
6260;DHT22;3163;51.516;4.000;2023-02-15T03:18:21;8.20;99.90
6260;DHT22;3163;51.516;4.000;2023-02-15T03:20:48;8.20;99.90
6260;DHT22;3163;51.516;4.000;2023-02-15T03:23:19;8.20;99.90
6260;DHT22;3163;51.516;4.000;2023-02-15T03:25:52;8.20;99.90
6260;DHT22;3163;51.516;4.000;2023-02-15T03:28:27;8.20;99.90
6260;DHT22;3163;51.516;4.000;2023-02-15T03:30:56;8.20;99.90
6260;DHT22;3163;51.516;4.000;2023-02-15T03:33:25;8.20;99.90
6260;DHT22;3163;51.516;4.000;2023-02-15T03:38:43;8.20;99.90
6260;DHT22;3163;51.516;4.000;2023-02-15T03:41:11;8.10;99.90
6260;DHT22;3163;51.516;4.000;2023-02-15T03:43:45;8.20;99.90
6260;DHT22;3163;51.516;4.000;2023-02-15T03:49:03;8.20;99.90
6260;DHT22;3163;51.516;4.000;2023-02-15T03:51:34;8.20;99.90
6260;DHT22;3163;51.516;4.000;2023-02-15T03:54:09;8.10;99.90
6260;DHT22;3163;51.516;4.000;2023-02-15T03:56:38;8.10;99.90
6260;DHT22;3163;51.516;4.000;2023-02-15T03:59:04;8.10;99.90
6260;DHT22;3163;51.516;4.000;2023-02-15T04:04:45;8.10;99.90
6260;DHT22;3163;51.516;4.000;2023-02-15T04:07:11;8.10;99.90
6260;DHT22;3163;51.516;4.000;2023-02-15T04:09:37;8.00;99.90
6260;DHT22;3163;51.516;4.000;2023-02-15T04:12:21;8.00;99.90
6260;DHT22;3163;51.516;4.000;2023-02-15T04:14:47;8.00;99.90
6260;DHT22;3163;51.516;4.000;2023-02-15T04:17:32;8.10;99.90
6260;DHT22;3163;51.516;4.000;2023-02-15T04:19:57;8.20;99.90
6260;DHT22;3163;51.516;4.000;2023-02-15T04:22:41;8.20;99.90
6260;DHT22;3163;51.516;4.000;2023-02-15T04:25:25;8.10;99.90
6260;DHT22;3163;51.516;4.000;2023-02-15T04:27:53;8.00;99.90
6260;DHT22;3163;51.516;4.000;2023-02-15T04:30:21;8.00;99.90
6260;DHT22;3163;51.516;4.000;2023-02-15T04:32:47;8.10;99.90
6260;DHT22;3163;51.516;4.000;2023-02-15T04:35:13;8.30;99.90
6260;DHT22;3163;51.516;4.000;2023-02-15T04:37:40;8.30;99.90
6260;DHT22;3163;51.516;4.000;2023-02-15T04:40:08;7.80;99.90
6260;DHT22;3163;51.516;4.000;2023-02-15T04:42:33;7.30;99.90
6260;DHT22;3163;51.516;4.000;2023-02-15T04:44:59;7.60;99.90
6260;DHT22;3163;51.516;4.000;2023-02-15T04:47:25;7.60;99.90
6260;DHT22;3163;51.516;4.000;2023-02-15T04:49:50;7.80;99.90
6260;DHT22;3163;51.516;4.000;2023-02-15T04:52:16;7.80;99.90
6260;DHT22;3163;51.516;4.000;2023-02-15T04:54:43;7.70;99.90
6260;DHT22;3163;51.516;4.000;2023-02-15T04:57:09;7.90;99.90
6260;DHT22;3163;51.516;4.000;2023-02-15T04:59:35;8.00;99.90
6260;DHT22;3163;51.516;4.000;2023-02-15T05:02:01;8.00;99.90
6260;DHT22;3163;51.516;4.000;2023-02-15T05:04:26;8.00;99.90
6260;DHT22;3163;51.516;4.000;2023-02-15T05:06:52;8.00;99.90
6260;DHT22;3163;51.516;4.000;2023-02-15T05:09:17;8.00;99.90
6260;DHT22;3163;51.516;4.000;2023-02-15T05:11:43;8.00;99.90
6260;DHT22;3163;51.516;4.000;2023-02-15T05:14:09;8.10;99.90
6260;DHT22;3163;51.516;4.000;2023-02-15T05:16:35;8.10;99.90
6260;DHT22;3163;51.516;4.000;2023-02-15T05:19:00;8.20;99.90
6260;DHT22;3163;51.516;4.000;2023-02-15T05:21:26;8.10;99.90
6260;DHT22;3163;51.516;4.000;2023-02-15T05:23:51;8.10;99.90
6260;DHT22;3163;51.516;4.000;2023-02-15T05:26:22;8.10;99.90
6260;DHT22;3163;51.516;4.000;2023-02-15T05:29:07;8.10;99.90
6260;DHT22;3163;51.516;4.000;2023-02-15T05:31:33;8.10;99.90
6260;DHT22;3163;51.516;4.000;2023-02-15T05:33:59;8.10;99.90
6260;DHT22;3163;51.516;4.000;2023-02-15T05:36:24;8.00;99.90
6260;DHT22;3163;51.516;4.000;2023-02-15T05:38:50;8.00;99.90
6260;DHT22;3163;51.516;4.000;2023-02-15T05:41:16;8.10;99.90
6260;DHT22;3163;51.516;4.000;2023-02-15T05:43:42;7.80;99.90
6260;DHT22;3163;51.516;4.000;2023-02-15T05:46:08;7.90;99.90
6260;DHT22;3163;51.516;4.000;2023-02-15T05:48:34;8.00;99.90
6260;DHT22;3163;51.516;4.000;2023-02-15T05:51:05;8.00;99.90
6260;DHT22;3163;51.516;4.000;2023-02-15T05:53:33;7.90;99.90
6260;DHT22;3163;51.516;4.000;2023-02-15T05:55:59;8.00;99.90
6260;DHT22;3163;51.516;4.000;2023-02-15T05:58:26;7.90;99.90
6260;DHT22;3163;51.516;4.000;2023-02-15T06:00:52;7.90;99.90
6260;DHT22;3163;51.516;4.000;2023-02-15T06:03:18;8.00;99.90
6260;DHT22;3163;51.516;4.000;2023-02-15T06:05:44;7.90;99.90
6260;DHT22;3163;51.516;4.000;2023-02-15T06:08:09;7.70;99.90
6260;DHT22;3163;51.516;4.000;2023-02-15T06:10:35;7.80;99.90
6260;DHT22;3163;51.516;4.000;2023-02-15T06:13:01;7.80;99.90
6260;DHT22;3163;51.516;4.000;2023-02-15T06:15:26;7.50;99.90
6260;DHT22;3163;51.516;4.000;2023-02-15T06:17:52;7.60;99.90
6260;DHT22;3163;51.516;4.000;2023-02-15T06:20:18;7.60;99.90
6260;DHT22;3163;51.516;4.000;2023-02-15T06:22:43;7.80;99.90
6260;DHT22;3163;51.516;4.000;2023-02-15T06:25:09;8.00;99.90
6260;DHT22;3163;51.516;4.000;2023-02-15T06:27:36;8.00;99.90
6260;DHT22;3163;51.516;4.000;2023-02-15T06:30:04;8.20;99.90
6260;DHT22;3163;51.516;4.000;2023-02-15T06:32:31;8.10;99.90
6260;DHT22;3163;51.516;4.000;2023-02-15T06:34:56;8.10;99.90
6260;DHT22;3163;51.516;4.000;2023-02-15T06:37:22;7.90;99.90
6260;DHT22;3163;51.516;4.000;2023-02-15T06:39:48;8.00;99.90
6260;DHT22;3163;51.516;4.000;2023-02-15T06:42:13;7.90;99.90
6260;DHT22;3163;51.516;4.000;2023-02-15T06:44:39;7.90;99.90
6260;DHT22;3163;51.516;4.000;2023-02-15T06:47:05;8.00;99.90
6260;DHT22;3163;51.516;4.000;2023-02-15T06:49:30;8.00;99.90
6260;DHT22;3163;51.516;4.000;2023-02-15T06:51:56;8.10;99.90
6260;DHT22;3163;51.516;4.000;2023-02-15T06:54:21;8.20;99.90
6260;DHT22;3163;51.516;4.000;2023-02-15T06:56:47;8.20;99.90
6260;DHT22;3163;51.516;4.000;2023-02-15T06:59:13;8.20;99.90
6260;DHT22;3163;51.516;4.000;2023-02-15T07:01:38;8.20;99.90
6260;DHT22;3163;51.516;4.000;2023-02-15T07:04:04;8.30;99.90
6260;DHT22;3163;51.516;4.000;2023-02-15T07:06:33;8.30;99.90
6260;DHT22;3163;51.516;4.000;2023-02-15T07:08:59;8.40;99.90
6260;DHT22;3163;51.516;4.000;2023-02-15T07:11:25;8.40;99.90
6260;DHT22;3163;51.516;4.000;2023-02-15T07:14:17;8.40;99.90
6260;DHT22;3163;51.516;4.000;2023-02-15T07:16:43;8.50;99.90
6260;DHT22;3163;51.516;4.000;2023-02-15T07:19:08;8.50;99.90
6260;DHT22;3163;51.516;4.000;2023-02-15T07:21:35;8.50;99.90
6260;DHT22;3163;51.516;4.000;2023-02-15T07:24:00;8.60;99.90
6260;DHT22;3163;51.516;4.000;2023-02-15T07:26:26;8.60;99.90
6260;DHT22;3163;51.516;4.000;2023-02-15T07:28:52;8.60;99.90
6260;DHT22;3163;51.516;4.000;2023-02-15T07:31:18;8.60;99.90
6260;DHT22;3163;51.516;4.000;2023-02-15T07:33:43;8.70;99.90
6260;DHT22;3163;51.516;4.000;2023-02-15T07:36:09;8.70;99.90
6260;DHT22;3163;51.516;4.000;2023-02-15T07:38:39;8.80;99.90
6260;DHT22;3163;51.516;4.000;2023-02-15T07:41:15;8.80;99.90
6260;DHT22;3163;51.516;4.000;2023-02-15T07:43:43;8.90;99.90
6260;DHT22;3163;51.516;4.000;2023-02-15T07:46:11;9.00;99.90
6260;DHT22;3163;51.516;4.000;2023-02-15T07:48:38;9.10;99.90
6260;DHT22;3163;51.516;4.000;2023-02-15T07:51:06;9.10;99.90
6260;DHT22;3163;51.516;4.000;2023-02-15T07:53:32;9.10;99.90
6260;DHT22;3163;51.516;4.000;2023-02-15T07:56:00;9.20;99.90
6260;DHT22;3163;51.516;4.000;2023-02-15T07:58:25;9.20;99.90
6260;DHT22;3163;51.516;4.000;2023-02-15T08:01:11;9.20;99.90
6260;DHT22;3163;51.516;4.000;2023-02-15T08:03:37;9.20;99.90
6260;DHT22;3163;51.516;4.000;2023-02-15T08:06:03;9.30;99.90
6260;DHT22;3163;51.516;4.000;2023-02-15T08:08:29;9.30;99.90
6260;DHT22;3163;51.516;4.000;2023-02-15T08:13:46;9.40;99.90
6260;DHT22;3163;51.516;4.000;2023-02-15T08:19:10;9.50;99.90
6260;DHT22;3163;51.516;4.000;2023-02-15T08:21:37;9.60;99.90
6260;DHT22;3163;51.516;4.000;2023-02-15T08:24:04;9.50;99.90
6260;DHT22;3163;51.516;4.000;2023-02-15T08:26:31;9.50;99.90
6260;DHT22;3163;51.516;4.000;2023-02-15T08:28:58;9.50;99.90
6260;DHT22;3163;51.516;4.000;2023-02-15T08:31:24;9.50;99.90
6260;DHT22;3163;51.516;4.000;2023-02-15T08:33:51;9.60;99.90
6260;DHT22;3163;51.516;4.000;2023-02-15T08:36:20;9.70;99.90
6260;DHT22;3163;51.516;4.000;2023-02-15T08:38:46;9.80;99.90
6260;DHT22;3163;51.516;4.000;2023-02-15T08:43:41;9.80;99.90
6260;DHT22;3163;51.516;4.000;2023-02-15T08:46:08;9.90;99.90
6260;DHT22;3163;51.516;4.000;2023-02-15T08:48:34;9.90;99.90
6260;DHT22;3163;51.516;4.000;2023-02-15T08:51:14;9.20;99.90
6260;DHT22;3163;51.516;4.000;2023-02-15T08:53:42;9.40;99.90
6260;DHT22;3163;51.516;4.000;2023-02-15T08:56:08;9.70;99.90
6260;DHT22;3163;51.516;4.000;2023-02-15T08:58:34;9.90;99.90
6260;DHT22;3163;51.516;4.000;2023-02-15T09:01:00;9.90;99.90
6260;DHT22;3163;51.516;4.000;2023-02-15T09:03:27;10.10;99.90
6260;DHT22;3163;51.516;4.000;2023-02-15T09:06:00;10.20;99.90
6260;DHT22;3163;51.516;4.000;2023-02-15T09:08:27;10.20;99.90
6260;DHT22;3163;51.516;4.000;2023-02-15T09:10:53;10.10;99.90
6260;DHT22;3163;51.516;4.000;2023-02-15T09:13:19;10.30;99.90
6260;DHT22;3163;51.516;4.000;2023-02-15T09:15:46;10.20;99.90
6260;DHT22;3163;51.516;4.000;2023-02-15T09:18:12;10.20;99.90
6260;DHT22;3163;51.516;4.000;2023-02-15T09:20:43;10.30;99.90
6260;DHT22;3163;51.516;4.000;2023-02-15T09:23:09;10.50;99.90
6260;DHT22;3163;51.516;4.000;2023-02-15T09:25:35;10.60;99.90
6260;DHT22;3163;51.516;4.000;2023-02-15T09:28:00;10.60;99.90
6260;DHT22;3163;51.516;4.000;2023-02-15T09:30:26;10.60;99.90
6260;DHT22;3163;51.516;4.000;2023-02-15T09:32:51;10.60;99.90
6260;DHT22;3163;51.516;4.000;2023-02-15T09:35:17;10.70;99.90
6260;DHT22;3163;51.516;4.000;2023-02-15T09:37:43;10.80;99.90
6260;DHT22;3163;51.516;4.000;2023-02-15T09:40:12;10.70;99.90
6260;DHT22;3163;51.516;4.000;2023-02-15T09:42:54;10.80;99.90
6260;DHT22;3163;51.516;4.000;2023-02-15T09:45:34;10.90;99.90
6260;DHT22;3163;51.516;4.000;2023-02-15T09:51:34;10.90;99.90
6260;DHT22;3163;51.516;4.000;2023-02-15T09:56:57;11.00;99.90
6260;DHT22;3163;51.516;4.000;2023-02-15T10:02:06;11.10;99.90
6260;DHT22;3163;51.516;4.000;2023-02-15T10:05:11;11.20;99.90
6260;DHT22;3163;51.516;4.000;2023-02-15T10:13:29;11.40;99.90
6260;DHT22;3163;51.516;4.000;2023-02-15T10:16:24;11.30;99.90
6260;DHT22;3163;51.516;4.000;2023-02-15T10:27:44;11.40;99.90
6260;DHT22;3163;51.516;4.000;2023-02-15T10:33:00;11.50;99.90
6260;DHT22;3163;51.516;4.000;2023-02-15T10:35:48;11.60;99.90
6260;DHT22;3163;51.516;4.000;2023-02-15T10:38:37;11.60;99.90
6260;DHT22;3163;51.516;4.000;2023-02-15T10:44:10;11.80;99.90
6260;DHT22;3163;51.516;4.000;2023-02-15T10:46:56;11.90;99.90
6260;DHT22;3163;51.516;4.000;2023-02-15T10:54:37;11.90;99.90
6260;DHT22;3163;51.516;4.000;2023-02-15T11:00:15;12.00;99.90
6260;DHT22;3163;51.516;4.000;2023-02-15T11:08:29;12.00;99.90
6260;DHT22;3163;51.516;4.000;2023-02-15T11:11:06;12.00;99.90
6260;DHT22;3163;51.516;4.000;2023-02-15T11:13:41;12.10;99.90
6260;DHT22;3163;51.516;4.000;2023-02-15T11:16:14;12.10;99.90
6260;DHT22;3163;51.516;4.000;2023-02-15T11:18:51;12.20;99.90
6260;DHT22;3163;51.516;4.000;2023-02-15T11:23:51;12.60;99.90
6260;DHT22;3163;51.516;4.000;2023-02-15T11:26:34;12.60;99.90
6260;DHT22;3163;51.516;4.000;2023-02-15T11:29:41;12.60;99.90
6260;DHT22;3163;51.516;4.000;2023-02-15T11:32:31;12.50;99.90
6260;DHT22;3163;51.516;4.000;2023-02-15T11:40:27;12.80;99.90
6260;DHT22;3163;51.516;4.000;2023-02-15T11:42:56;12.80;99.90
6260;DHT22;3163;51.516;4.000;2023-02-15T11:45:26;12.90;99.90
6260;DHT22;3163;51.516;4.000;2023-02-15T11:47:53;12.80;99.90
6260;DHT22;3163;51.516;4.000;2023-02-15T11:50:27;13.00;99.90
6260;DHT22;3163;51.516;4.000;2023-02-15T11:52:59;13.10;99.90
6260;DHT22;3163;51.516;4.000;2023-02-15T11:55:27;13.00;99.90
6260;DHT22;3163;51.516;4.000;2023-02-15T12:00:36;13.00;99.90
6260;DHT22;3163;51.516;4.000;2023-02-15T12:03:18;13.00;99.90
6260;DHT22;3163;51.516;4.000;2023-02-15T12:05:52;13.00;99.90
6260;DHT22;3163;51.516;4.000;2023-02-15T12:08:22;12.80;99.90
6260;DHT22;3163;51.516;4.000;2023-02-15T12:10:58;13.10;99.90
6260;DHT22;3163;51.516;4.000;2023-02-15T12:13:25;13.00;99.90
6260;DHT22;3163;51.516;4.000;2023-02-15T12:15:55;13.10;99.90
6260;DHT22;3163;51.516;4.000;2023-02-15T12:21:23;13.00;99.90
6260;DHT22;3163;51.516;4.000;2023-02-15T12:23:52;13.00;99.90
6260;DHT22;3163;51.516;4.000;2023-02-15T12:26:31;13.30;99.90
6260;DHT22;3163;51.516;4.000;2023-02-15T12:29:01;13.30;99.90
6260;DHT22;3163;51.516;4.000;2023-02-15T12:31:44;13.10;99.90
6260;DHT22;3163;51.516;4.000;2023-02-15T12:34:23;13.10;99.90
6260;DHT22;3163;51.516;4.000;2023-02-15T12:36:53;13.20;99.90
6260;DHT22;3163;51.516;4.000;2023-02-15T12:39:25;13.30;99.90
6260;DHT22;3163;51.516;4.000;2023-02-15T12:44:26;12.70;99.90
6260;DHT22;3163;51.516;4.000;2023-02-15T12:47:04;12.60;99.90
6260;DHT22;3163;51.516;4.000;2023-02-15T12:49:32;12.80;99.90
6260;DHT22;3163;51.516;4.000;2023-02-15T12:52:00;12.90;99.90
6260;DHT22;3163;51.516;4.000;2023-02-15T12:54:30;13.00;99.90
6260;DHT22;3163;51.516;4.000;2023-02-15T12:56:57;13.00;99.90
6260;DHT22;3163;51.516;4.000;2023-02-15T12:59:23;12.90;99.90
6260;DHT22;3163;51.516;4.000;2023-02-15T13:01:50;12.80;99.90
6260;DHT22;3163;51.516;4.000;2023-02-15T13:04:26;12.90;99.90
6260;DHT22;3163;51.516;4.000;2023-02-15T13:06:56;12.90;99.90
6260;DHT22;3163;51.516;4.000;2023-02-15T13:09:35;12.90;99.90
6260;DHT22;3163;51.516;4.000;2023-02-15T13:12:30;13.00;99.90
6260;DHT22;3163;51.516;4.000;2023-02-15T13:14:57;13.10;99.90
6260;DHT22;3163;51.516;4.000;2023-02-15T13:17:31;13.20;99.90
6260;DHT22;3163;51.516;4.000;2023-02-15T13:20:17;13.30;99.90
6260;DHT22;3163;51.516;4.000;2023-02-15T13:22:45;13.10;99.90
6260;DHT22;3163;51.516;4.000;2023-02-15T13:25:21;13.20;99.90
6260;DHT22;3163;51.516;4.000;2023-02-15T13:27:51;13.10;99.90
6260;DHT22;3163;51.516;4.000;2023-02-15T13:30:30;13.00;99.90
6260;DHT22;3163;51.516;4.000;2023-02-15T13:33:08;13.20;99.90
6260;DHT22;3163;51.516;4.000;2023-02-15T13:47:10;13.10;99.90
6260;DHT22;3163;51.516;4.000;2023-02-15T13:52:34;13.20;99.90
6260;DHT22;3163;51.516;4.000;2023-02-15T13:55:21;13.20;99.90
6260;DHT22;3163;51.516;4.000;2023-02-15T14:00:51;13.20;99.90
6260;DHT22;3163;51.516;4.000;2023-02-15T14:14:25;13.00;99.90
6260;DHT22;3163;51.516;4.000;2023-02-15T14:19:54;13.10;99.90
6260;DHT22;3163;51.516;4.000;2023-02-15T14:30:21;13.00;99.90
6260;DHT22;3163;51.516;4.000;2023-02-15T14:32:52;13.00;99.90
6260;DHT22;3163;51.516;4.000;2023-02-15T14:35:21;12.90;99.90
6260;DHT22;3163;51.516;4.000;2023-02-15T14:41:19;13.10;99.90
6260;DHT22;3163;51.516;4.000;2023-02-15T14:46:42;13.00;99.90
6260;DHT22;3163;51.516;4.000;2023-02-15T14:49:16;13.00;99.90
6260;DHT22;3163;51.516;4.000;2023-02-15T15:04:38;13.00;99.90
6260;DHT22;3163;51.516;4.000;2023-02-15T15:09:39;13.00;99.90
6260;DHT22;3163;51.516;4.000;2023-02-15T15:14:50;13.00;99.90
6260;DHT22;3163;51.516;4.000;2023-02-15T15:22:24;12.70;99.90
6260;DHT22;3163;51.516;4.000;2023-02-15T15:24:58;12.90;99.90
6260;DHT22;3163;51.516;4.000;2023-02-15T15:40:52;12.80;99.90
6260;DHT22;3163;51.516;4.000;2023-02-15T15:49:16;12.70;99.90
6260;DHT22;3163;51.516;4.000;2023-02-15T15:51:43;12.60;99.90
6260;DHT22;3163;51.516;4.000;2023-02-15T15:54:19;12.70;99.90
6260;DHT22;3163;51.516;4.000;2023-02-15T15:56:52;12.70;99.90
6260;DHT22;3163;51.516;4.000;2023-02-15T15:59:23;12.70;99.90
6260;DHT22;3163;51.516;4.000;2023-02-15T16:01:50;12.70;99.90
6260;DHT22;3163;51.516;4.000;2023-02-15T16:04:27;12.70;99.90
6260;DHT22;3163;51.516;4.000;2023-02-15T16:06:55;12.70;99.90
6260;DHT22;3163;51.516;4.000;2023-02-15T16:09:24;12.70;99.90
6260;DHT22;3163;51.516;4.000;2023-02-15T16:11:57;12.70;99.90
6260;DHT22;3163;51.516;4.000;2023-02-15T16:16:54;12.70;99.90
6260;DHT22;3163;51.516;4.000;2023-02-15T16:19:22;12.70;99.90
6260;DHT22;3163;51.516;4.000;2023-02-15T16:21:50;12.60;99.90
6260;DHT22;3163;51.516;4.000;2023-02-15T16:24:54;12.60;99.90
6260;DHT22;3163;51.516;4.000;2023-02-15T16:27:43;12.50;99.90
6260;DHT22;3163;51.516;4.000;2023-02-15T16:30:27;12.50;99.90
6260;DHT22;3163;51.516;4.000;2023-02-15T16:33:16;12.50;99.90
6260;DHT22;3163;51.516;4.000;2023-02-15T16:35:55;12.50;99.90
6260;DHT22;3163;51.516;4.000;2023-02-15T16:41:21;12.50;99.90
6260;DHT22;3163;51.516;4.000;2023-02-15T16:43:50;12.50;99.90
6260;DHT22;3163;51.516;4.000;2023-02-15T16:46:40;12.50;99.90
6260;DHT22;3163;51.516;4.000;2023-02-15T16:49:22;12.40;99.90
6260;DHT22;3163;51.516;4.000;2023-02-15T16:52:02;12.40;99.90
6260;DHT22;3163;51.516;4.000;2023-02-15T16:54:28;12.40;99.90
6260;DHT22;3163;51.516;4.000;2023-02-15T16:56:56;12.40;99.90
6260;DHT22;3163;51.516;4.000;2023-02-15T16:59:38;12.40;99.90
6260;DHT22;3163;51.516;4.000;2023-02-15T17:02:20;12.40;99.90
6260;DHT22;3163;51.516;4.000;2023-02-15T17:05:22;12.30;99.90
6260;DHT22;3163;51.516;4.000;2023-02-15T17:08:05;12.30;99.90
6260;DHT22;3163;51.516;4.000;2023-02-15T17:10:38;12.10;99.90
6260;DHT22;3163;51.516;4.000;2023-02-15T17:13:14;12.20;99.90
6260;DHT22;3163;51.516;4.000;2023-02-15T17:18:18;12.20;99.90
6260;DHT22;3163;51.516;4.000;2023-02-15T17:20:45;12.20;99.90
6260;DHT22;3163;51.516;4.000;2023-02-15T17:25:47;12.30;99.90
6260;DHT22;3163;51.516;4.000;2023-02-15T17:28:21;12.30;99.90
6260;DHT22;3163;51.516;4.000;2023-02-15T17:30:50;12.30;99.90
6260;DHT22;3163;51.516;4.000;2023-02-15T17:33:26;12.30;99.90
6260;DHT22;3163;51.516;4.000;2023-02-15T17:36:20;12.20;99.90
6260;DHT22;3163;51.516;4.000;2023-02-15T17:41:33;12.00;99.90
6260;DHT22;3163;51.516;4.000;2023-02-15T17:44:00;12.00;99.90
6260;DHT22;3163;51.516;4.000;2023-02-15T17:46:29;12.00;99.90
6260;DHT22;3163;51.516;4.000;2023-02-15T17:48:57;12.00;99.90
6260;DHT22;3163;51.516;4.000;2023-02-15T17:51:23;11.90;99.90
6260;DHT22;3163;51.516;4.000;2023-02-15T17:53:48;11.90;99.90
6260;DHT22;3163;51.516;4.000;2023-02-15T17:56:33;11.80;99.90
6260;DHT22;3163;51.516;4.000;2023-02-15T17:58:59;11.80;99.90
6260;DHT22;3163;51.516;4.000;2023-02-15T18:01:25;11.70;99.90
6260;DHT22;3163;51.516;4.000;2023-02-15T18:04:13;11.70;99.90
6260;DHT22;3163;51.516;4.000;2023-02-15T18:06:58;11.60;99.90
6260;DHT22;3163;51.516;4.000;2023-02-15T18:09:42;11.60;99.90
6260;DHT22;3163;51.516;4.000;2023-02-15T18:12:32;11.50;99.90
6260;DHT22;3163;51.516;4.000;2023-02-15T18:14:59;11.40;99.90
6260;DHT22;3163;51.516;4.000;2023-02-15T18:17:37;11.30;99.90
6260;DHT22;3163;51.516;4.000;2023-02-15T18:20:06;11.30;99.90
6260;DHT22;3163;51.516;4.000;2023-02-15T18:22:35;11.30;99.90
6260;DHT22;3163;51.516;4.000;2023-02-15T18:25:01;11.20;99.90
6260;DHT22;3163;51.516;4.000;2023-02-15T18:27:27;11.20;99.90
6260;DHT22;3163;51.516;4.000;2023-02-15T18:29:52;11.20;99.90
6260;DHT22;3163;51.516;4.000;2023-02-15T18:32:28;11.20;99.90
6260;DHT22;3163;51.516;4.000;2023-02-15T18:34:56;11.20;99.90
6260;DHT22;3163;51.516;4.000;2023-02-15T18:37:25;11.20;99.90
6260;DHT22;3163;51.516;4.000;2023-02-15T18:39:51;11.10;99.90
6260;DHT22;3163;51.516;4.000;2023-02-15T18:42:28;11.10;99.90
6260;DHT22;3163;51.516;4.000;2023-02-15T18:45:03;11.00;99.90
6260;DHT22;3163;51.516;4.000;2023-02-15T18:47:31;10.70;99.90
6260;DHT22;3163;51.516;4.000;2023-02-15T18:49:57;10.70;99.90
6260;DHT22;3163;51.516;4.000;2023-02-15T18:52:26;10.70;99.90
6260;DHT22;3163;51.516;4.000;2023-02-15T18:54:58;10.80;99.90
6260;DHT22;3163;51.516;4.000;2023-02-15T18:57:26;10.80;99.90
6260;DHT22;3163;51.516;4.000;2023-02-15T18:59:52;10.80;99.90
6260;DHT22;3163;51.516;4.000;2023-02-15T19:02:18;10.80;99.90
6260;DHT22;3163;51.516;4.000;2023-02-15T19:04:45;10.70;99.90
6260;DHT22;3163;51.516;4.000;2023-02-15T19:07:20;10.70;99.90
6260;DHT22;3163;51.516;4.000;2023-02-15T19:09:49;10.70;99.90
6260;DHT22;3163;51.516;4.000;2023-02-15T19:12:16;10.70;99.90
6260;DHT22;3163;51.516;4.000;2023-02-15T19:14:43;10.70;99.90
6260;DHT22;3163;51.516;4.000;2023-02-15T19:17:18;10.70;99.90
6260;DHT22;3163;51.516;4.000;2023-02-15T19:19:44;10.70;99.90
6260;DHT22;3163;51.516;4.000;2023-02-15T19:22:24;10.60;99.90
6260;DHT22;3163;51.516;4.000;2023-02-15T19:24:51;10.70;99.90
6260;DHT22;3163;51.516;4.000;2023-02-15T19:27:23;10.70;99.90
6260;DHT22;3163;51.516;4.000;2023-02-15T19:29:50;10.60;99.90
6260;DHT22;3163;51.516;4.000;2023-02-15T19:32:15;10.60;99.90
6260;DHT22;3163;51.516;4.000;2023-02-15T19:34:41;10.70;99.90
6260;DHT22;3163;51.516;4.000;2023-02-15T19:37:15;10.60;99.90
6260;DHT22;3163;51.516;4.000;2023-02-15T19:39:44;10.60;99.90
6260;DHT22;3163;51.516;4.000;2023-02-15T19:42:13;10.60;99.90
6260;DHT22;3163;51.516;4.000;2023-02-15T19:44:39;10.50;99.90
6260;DHT22;3163;51.516;4.000;2023-02-15T19:47:17;10.50;99.90
6260;DHT22;3163;51.516;4.000;2023-02-15T19:49:42;10.50;99.90
6260;DHT22;3163;51.516;4.000;2023-02-15T19:52:15;10.50;99.90